Terminal Aerodrome Forecast
Issued by NWS

Home | Current Version | Previous Version | Graphics & Text | Print | Product List | Glossary On
Versions: 1 2 3 4 5 6 7 8 9 10 11 12 13 14 15 16 17 18 19
000
FTUS43 KGRB 271632 AAB
TAFATW
TAF AMD
KATW 271632Z 2717/2812 35012G25KT P6SM -SHRA SCT025 BKN050
      TEMPO 2717/2718 1SM +TSRA OVC025CB
     FM271800 02009KT P6SM BKN040
     FM280300 04004KT 4SM -SHRA BKN025 OVC040
     FM280600 02006KT 5SM BR VCSH BKN020=

USA.gov is the U.S. government's official web portal to all federal, state and local government web resources and services.